Time;durP1;ratioP1;P1;durP2;ratioP2;P2;SDS_P1;SDS_P2;PMS_P1;PMS_P2;Temp;Humidity;BMP_temperature;BMP_pressure;BME280_temperature;BME280_humidity;BME280_pressure;Samples;Min_cycle;Max_cycle;Signal;HPM_P1;HPM_P2
2022/12/10 00:02:14;;;;;;;0.10;0.10;;;15.50;99.90;;;;;;5113551;28;20028;-81
2022/12/10 00:04:40;;;;;;;0.10;0.10;;;15.50;99.90;;;;;;5112584;28;20073;-75
2022/12/10 00:07:05;;;;;;;0.20;0.20;;;15.60;99.90;;;;;;5092212;28;20118;-84
2022/12/10 00:09:31;;;;;;;0.10;0.10;;;15.60;99.90;;;;;;5102712;28;20090;-85
2022/12/10 00:11:57;;;;;;;0.20;0.20;;;15.50;99.90;;;;;;5108755;28;20432;-77
2022/12/10 00:14:23;;;;;;;0.10;0.10;;;14.20;99.90;;;;;;5108739;28;20197;-76
2022/12/10 00:16:48;;;;;;;2.78;2.70;;;15.40;99.90;;;;;;5093355;28;20514;-78
2022/12/10 00:19:14;;;;;;;0.10;0.10;;;15.30;99.90;;;;;;5091260;28;20025;-76
2022/12/10 00:21:40;;;;;;;0.20;0.20;;;15.30;99.90;;;;;;5091731;28;20182;-75
2022/12/10 00:24:06;;;;;;;0.30;0.30;;;15.30;99.90;;;;;;5091266;28;20221;-76
2022/12/10 00:26:36;;;;;;;0.10;0.10;;;15.20;99.90;;;;;;5085200;28;20028;-75
2022/12/10 00:29:06;;;;;;;0.10;0.10;;;15.20;99.90;;;;;;5084552;28;20464;-79
2022/12/10 00:31:33;;;;;;;0.20;0.20;;;15.20;99.90;;;;;;5085391;28;20095;-81
2022/12/10 00:34:02;;;;;;;0.30;0.30;;;15.20;99.90;;;;;;5083342;28;20504;-75
2022/12/10 00:36:43;;;;;;;0.10;0.10;;;15.30;99.90;;;;;;5082963;28;20024;-81
2022/12/10 00:39:11;;;;;;;0.20;0.20;;;15.30;99.90;;;;;;5085994;28;20454;-75
2022/12/10 00:41:36;;;;;;;0.10;0.10;;;15.30;99.90;;;;;;5083393;28;20054;-80
2022/12/10 00:44:02;;;;;;;0.20;0.20;;;15.30;99.90;;;;;;5082089;28;20020;-78
2022/12/10 00:46:28;;;;;;;0.20;0.20;;;15.30;99.90;;;;;;5081287;28;20510;-74
2022/12/10 00:48:54;;;;;;;1.30;1.30;;;15.30;99.90;;;;;;5081709;28;20289;-76
2022/12/10 00:51:23;;;;;;;0.20;0.20;;;15.30;99.90;;;;;;5082318;28;20256;-75
2022/12/10 00:53:51;;;;;;;0.15;0.15;;;15.20;99.90;;;;;;5080541;28;20024;-74
2022/12/10 00:56:20;;;;;;;0.20;0.20;;;15.30;99.90;;;;;;5081890;28;20051;-76
2022/12/10 00:58:47;;;;;;;0.10;0.10;;;15.30;99.90;;;;;;5081450;28;20020;-89
2022/12/10 01:01:23;;;;;;;0.20;0.20;;;15.30;99.90;;;;;;5081552;28;20118;-74
2022/12/10 01:03:51;;;;;;;0.10;0.10;;;15.30;99.90;;;;;;5080759;28;20652;-77
2022/12/10 01:06:41;;;;;;;0.10;0.10;;;15.30;99.90;;;;;;5080364;28;20587;-83
2022/12/10 01:09:10;;;;;;;0.20;0.20;;;15.30;99.90;;;;;;5081111;28;20039;-75
2022/12/10 01:11:38;;;;;;;0.20;0.20;;;15.30;99.90;;;;;;5081738;28;20051;-76
2022/12/10 01:14:09;;;;;;;0.10;0.10;;;15.30;99.90;;;;;;5081784;28;20032;-80
2022/12/10 01:16:35;;;;;;;0.20;0.20;;;15.40;99.90;;;;;;5090267;28;20435;-75
2022/12/10 01:19:00;;;;;;;0.10;0.10;;;15.40;99.90;;;;;;5101077;28;20074;-74
2022/12/10 01:21:28;;;;;;;0.10;0.10;;;14.80;99.90;;;;;;5099731;28;20625;-76
2022/12/10 01:23:54;;;;;;;0.10;0.10;;;15.40;99.90;;;;;;5102126;28;20521;-81
2022/12/10 01:26:23;;;;;;;0.10;0.10;;;15.40;99.90;;;;;;5102530;28;20024;-75
2022/12/10 01:28:49;;;;;;;0.10;0.10;;;14.40;99.90;;;;;;5104839;28;20038;-74
2022/12/10 01:31:28;;;;;;;0.10;0.10;;;15.30;99.90;;;;;;5110507;28;20024;-74
2022/12/10 01:33:55;;;;;;;0.10;0.10;;;15.40;99.90;;;;;;5111062;28;20291;-74
2022/12/10 01:36:30;;;;;;;0.20;0.20;;;15.50;99.90;;;;;;5107292;28;20501;-76
2022/12/10 01:38:56;;;;;;;0.40;0.40;;;15.30;99.90;;;;;;5106939;28;20050;-75
2022/12/10 01:41:25;;;;;;;0.20;0.20;;;15.20;99.90;;;;;;5083038;28;20035;-79
2022/12/10 01:43:57;;;;;;;0.10;0.10;;;15.20;99.90;;;;;;5107803;28;20023;-73
2022/12/10 01:46:26;;;;;;;0.17;0.17;;;15.10;99.90;;;;;;5108681;28;20566;-74
2022/12/10 01:48:52;;;;;;;0.10;0.10;;;15.10;99.90;;;;;;5105987;28;20235;-74
2022/12/10 01:51:19;;;;;;;0.20;0.20;;;15.20;99.90;;;;;;5107061;28;20216;-80
2022/12/10 01:53:46;;;;;;;0.20;0.20;;;15.20;99.90;;;;;;5088863;28;20082;-76
2022/12/10 01:56:13;;;;;;;0.20;0.20;;;15.10;99.90;;;;;;5107428;28;20019;-74
2022/12/10 01:58:39;;;;;;;0.20;0.20;;;15.00;99.90;;;;;;5105808;28;20019;-84
2022/12/10 02:01:17;;;;;;;0.15;0.15;;;15.10;99.90;;;;;;5109229;28;20593;-75
2022/12/10 02:03:48;;;;;;;0.30;0.30;;;15.10;99.90;;;;;;5105657;28;20248;-77
2022/12/10 02:06:25;;;;;;;0.15;0.15;;;15.10;99.90;;;;;;5108463;28;20331;-85
2022/12/10 02:09:30;;;;;;;0.20;0.20;;;15.00;99.90;;;;;;5104869;28;20274;-77
2022/12/10 02:12:08;;;;;;;0.20;0.20;;;15.10;99.90;;;;;;4998635;28;20099;-77
2022/12/10 02:14:52;;;;;;;0.20;0.20;;;15.00;99.90;;;;;;5000695;28;20026;-79
2022/12/10 02:17:40;;;;;;;0.10;0.10;;;14.90;99.90;;;;;;4975393;28;20047;-75
2022/12/10 02:20:08;;;;;;;0.20;0.20;;;14.90;99.90;;;;;;4971915;28;20113;-73
2022/12/10 02:22:48;;;;;;;0.20;0.20;;;15.00;99.90;;;;;;4980666;28;20042;-77
2022/12/10 02:25:16;;;;;;;0.20;0.20;;;14.90;99.90;;;;;;4964443;28;20054;-83
2022/12/10 02:27:53;;;;;;;0.10;0.10;;;14.90;99.90;;;;;;4981822;28;20054;-81
2022/12/10 02:30:19;;;;;;;0.20;0.20;;;14.90;99.90;;;;;;4980827;28;20019;-80
2022/12/10 02:32:48;;;;;;;0.20;0.20;;;15.10;99.90;;;;;;4989737;28;20018;-78
2022/12/10 02:35:23;;;;;;;0.10;0.10;;;15.10;99.90;;;;;;4992383;28;20053;-75
2022/12/10 02:37:57;;;;;;;0.20;0.20;;;15.10;99.90;;;;;;4989416;28;20241;-75
2022/12/10 02:40:27;;;;;;;0.10;0.10;;;15.10;99.90;;;;;;4988279;28;20038;-79
2022/12/10 02:42:53;;;;;;;0.20;0.20;;;15.00;99.90;;;;;;4979620;28;20585;-73
2022/12/10 02:45:22;;;;;;;0.10;0.10;;;15.00;99.90;;;;;;4984305;28;20117;-78
2022/12/10 02:47:48;;;;;;;0.20;0.20;;;15.10;99.90;;;;;;5051424;28;20602;-78
2022/12/10 02:50:16;;;;;;;0.20;0.20;;;15.10;99.90;;;;;;5089352;28;20032;-83
2022/12/10 02:52:41;;;;;;;0.20;0.20;;;15.10;99.90;;;;;;5090661;28;20100;-75
2022/12/10 02:55:11;;;;;;;0.20;0.20;;;15.80;99.90;;;;;;5087754;28;20067;-80
2022/12/10 02:58:19;;;;;;;0.10;0.10;;;15.10;99.90;;;;;;5089097;28;20016;-78
2022/12/10 03:01:09;;;;;;;0.13;0.13;;;15.10;99.90;;;;;;5026249;28;20037;-76
2022/12/10 03:03:48;;;;;;;0.20;0.20;;;14.20;99.90;;;;;;5044646;28;20047;-79
2022/12/10 03:06:29;;;;;;;0.20;0.20;;;15.10;99.90;;;;;;5040920;28;20040;-75
2022/12/10 03:09:00;;;;;;;0.20;0.20;;;15.10;99.90;;;;;;5044332;28;20024;-87
2022/12/10 03:11:25;;;;;;;0.20;0.20;;;15.00;99.90;;;;;;5046132;28;20369;-79
2022/12/10 03:14:03;;;;;;;0.10;0.10;;;15.00;99.90;;;;;;5041538;28;20487;-77
2022/12/10 03:16:34;;;;;;;0.40;0.40;;;15.10;99.90;;;;;;5041392;28;20040;-78
2022/12/10 03:19:10;;;;;;;0.20;0.20;;;15.00;99.90;;;;;;5049035;28;20025;-85
2022/12/10 03:21:39;;;;;;;0.10;0.10;;;15.00;99.90;;;;;;5047247;28;20040;-79
2022/12/10 03:24:06;;;;;;;0.10;0.10;;;15.00;99.90;;;;;;5050768;28;20029;-76
2022/12/10 03:26:32;;;;;;;28.58;5.38;;;15.00;99.90;;;;;;5050261;28;20336;-78
2022/12/10 03:29:05;;;;;;;0.10;0.10;;;14.90;99.90;;;;;;5052778;28;20360;-76
2022/12/10 03:31:32;;;;;;;0.20;0.20;;;15.00;99.90;;;;;;5052382;28;20262;-82
2022/12/10 03:33:59;;;;;;;0.10;0.10;;;15.00;99.90;;;;;;5057109;28;20044;-78
2022/12/10 03:36:27;;;;;;;0.15;0.15;;;15.00;99.90;;;;;;5110098;28;20035;-75
2022/12/10 03:38:53;;;;;;;0.10;0.10;;;15.00;99.90;;;;;;5116940;28;20024;-75
2022/12/10 03:41:19;;;;;;;0.20;0.20;;;15.00;99.90;;;;;;5117108;28;20042;-76
2022/12/10 03:43:57;;;;;;;0.20;0.20;;;15.00;99.90;;;;;;5115001;28;20031;-75
2022/12/10 03:46:25;;;;;;;0.10;0.10;;;15.00;99.90;;;;;;5110981;28;20023;-79
2022/12/10 03:48:52;;;;;;;0.10;0.10;;;15.10;99.90;;;;;;5117169;28;20012;-85
2022/12/10 03:51:18;;;;;;;0.10;0.10;;;15.10;99.90;;;;;;5098118;28;20042;-78
2022/12/10 03:53:43;;;;;;;0.10;0.10;;;15.20;99.90;;;;;;5117655;28;20030;-75
2022/12/10 03:56:09;;;;;;;0.10;0.10;;;15.10;99.90;;;;;;5113060;28;20016;-79
2022/12/10 03:58:35;;;;;;;0.20;0.20;;;15.20;99.90;;;;;;5116862;28;20521;-76
2022/12/10 04:01:02;;;;;;;0.10;0.10;;;15.20;99.90;;;;;;5113414;28;20028;-76
2022/12/10 04:03:28;;;;;;;0.10;0.10;;;15.10;99.90;;;;;;5116054;28;20019;-76
2022/12/10 04:05:54;;;;;;;0.10;0.10;;;15.10;99.90;;;;;;5118190;28;20027;-75
2022/12/10 04:08:20;;;;;;;0.17;0.17;;;15.10;99.90;;;;;;5095560;28;20050;-85
2022/12/10 04:10:45;;;;;;;0.10;0.10;;;15.10;99.90;;;;;;5113428;28;20031;-80
2022/12/10 04:18:41;;;;;;;0.20;0.20;;;15.20;99.90;;;;;;5092711;28;20437;-81
2022/12/10 04:26:53;;;;;;;0.20;0.20;;;15.10;99.90;;;;;;5084914;28;20069;-80
2022/12/10 04:29:20;;;;;;;;;;;15.20;99.90;;;;;;5072664;28;20062;-76
2022/12/10 04:31:45;;;;;;;0.20;0.20;;;15.20;99.90;;;;;;5091600;28;19947;-82
2022/12/10 04:34:11;;;;;;;0.17;0.17;;;15.20;99.90;;;;;;5090362;28;20020;-76
2022/12/10 04:36:37;;;;;;;0.20;0.20;;;15.10;99.90;;;;;;5091676;28;20035;-86
2022/12/10 04:39:03;;;;;;;0.20;0.20;;;15.10;99.90;;;;;;5090204;28;20312;-75
2022/12/10 04:41:29;;;;;;;0.20;0.20;;;15.30;99.90;;;;;;5088599;28;20514;-74
2022/12/10 04:43:55;;;;;;;0.10;0.10;;;15.20;99.90;;;;;;5090436;28;20016;-83
2022/12/10 04:46:21;;;;;;;0.13;0.13;;;15.30;99.90;;;;;;5090021;28;20020;-74
2022/12/10 04:48:47;;;;;;;0.10;0.10;;;15.30;99.90;;;;;;5087385;28;20495;-74
2022/12/10 04:51:12;;;;;;;0.82;0.82;;;15.30;99.90;;;;;;5087464;28;20051;-79
2022/12/10 04:53:38;;;;;;;0.20;0.20;;;15.30;99.90;;;;;;5090814;28;20020;-77
2022/12/10 04:56:05;;;;;;;0.10;0.10;;;15.30;99.90;;;;;;5089567;28;20051;-78
2022/12/10 04:58:32;;;;;;;0.20;0.20;;;15.40;99.90;;;;;;5085127;28;20016;-80
2022/12/10 05:01:05;;;;;;;0.20;0.20;;;15.40;99.90;;;;;;5091728;28;20310;-76
2022/12/10 05:03:31;;;;;;;0.10;0.10;;;15.50;99.90;;;;;;5090115;28;20015;-78
2022/12/10 05:06:08;;;;;;;0.20;0.20;;;15.50;99.90;;;;;;5084451;28;20250;-73
2022/12/10 05:08:35;;;;;;;0.10;0.10;;;15.50;99.90;;;;;;5089169;28;20039;-80
2022/12/10 05:11:09;;;;;;;0.20;0.20;;;15.50;99.90;;;;;;5090290;28;20016;-77
2022/12/10 05:13:35;;;;;;;0.20;0.20;;;15.50;99.90;;;;;;5087516;28;20527;-79
2022/12/10 05:16:05;;;;;;;0.10;0.10;;;15.50;99.90;;;;;;5092972;28;20244;-76
2022/12/10 05:18:31;;;;;;;0.63;0.63;;;15.50;99.90;;;;;;5108503;28;20036;-80
2022/12/10 05:21:01;;;;;;;10.57;4.82;;;15.60;99.90;;;;;;5104983;28;20042;-74
2022/12/10 05:23:29;;;;;;;0.20;0.20;;;15.60;99.90;;;;;;5108409;28;20061;-74
2022/12/10 05:25:59;;;;;;;0.20;0.20;;;15.50;99.90;;;;;;5108593;28;20031;-76
2022/12/10 05:28:25;;;;;;;0.10;0.10;;;15.60;99.90;;;;;;5111068;28;20034;-73
2022/12/10 05:30:51;;;;;;;0.20;0.20;;;15.60;99.90;;;;;;5104653;28;20030;-77
2022/12/10 05:33:17;;;;;;;0.10;0.10;;;15.60;99.90;;;;;;5109095;28;20114;-82
2022/12/10 05:35:43;;;;;;;0.10;0.10;;;15.50;99.90;;;;;;5108188;28;20057;-76
2022/12/10 05:38:10;;;;;;;0.15;0.15;;;15.50;99.90;;;;;;5107846;28;20022;-74
2022/12/10 05:40:37;;;;;;;0.10;0.10;;;15.50;99.90;;;;;;5108965;28;20066;-74
2022/12/10 05:43:02;;;;;;;0.10;0.10;;;15.40;99.90;;;;;;5109334;28;20102;-81
2022/12/10 05:45:28;;;;;;;0.40;0.40;;;15.40;99.90;;;;;;5103396;28;20095;-76
2022/12/10 05:47:54;;;;;;;0.10;0.10;;;15.40;99.90;;;;;;5107502;28;20027;-86
2022/12/10 05:50:20;;;;;;;0.10;0.10;;;15.40;99.90;;;;;;5103249;28;20027;-86
2022/12/10 05:52:45;;;;;;;0.10;0.10;;;15.40;99.90;;;;;;5099750;28;20080;-76
2022/12/10 05:55:11;;;;;;;0.10;0.10;;;15.50;99.90;;;;;;5098836;28;20027;-79
2022/12/10 05:57:37;;;;;;;0.10;0.10;;;15.60;99.90;;;;;;5106151;28;20160;-84
2022/12/10 06:00:04;;;;;;;0.10;0.10;;;15.60;99.90;;;;;;5105654;28;20055;-77
2022/12/10 06:02:33;;;;;;;0.20;0.20;;;13.70;99.90;;;;;;5106286;28;20464;-80
2022/12/10 06:04:59;;;;;;;0.20;0.20;;;15.60;99.90;;;;;;5099608;28;20108;-76
2022/12/10 06:07:25;;;;;;;0.20;0.20;;;15.50;99.90;;;;;;5099280;28;20486;-75
2022/12/10 06:09:50;;;;;;;0.20;0.20;;;15.50;99.90;;;;;;5100526;28;20121;-79
2022/12/10 06:12:16;;;;;;;0.20;0.20;;;15.40;99.90;;;;;;5100505;28;20036;-84
2022/12/10 06:14:42;;;;;;;0.20;0.20;;;15.40;99.90;;;;;;5100638;28;20054;-76
2022/12/10 06:17:08;;;;;;;0.20;0.20;;;15.40;99.90;;;;;;5105189;28;20047;-78
2022/12/10 06:19:34;;;;;;;0.20;0.20;;;15.30;99.90;;;;;;5106756;28;20334;-78
2022/12/10 06:22:00;;;;;;;0.30;0.30;;;15.30;99.90;;;;;;5106075;28;20223;-79
2022/12/10 06:24:27;;;;;;;0.17;0.17;;;15.30;99.90;;;;;;5104970;28;20026;-74
2022/12/10 06:26:52;;;;;;;0.17;0.17;;;15.30;99.90;;;;;;5102745;28;20482;-83
2022/12/10 06:29:18;;;;;;;0.20;0.20;;;15.40;99.90;;;;;;5102718;28;20051;-76
2022/12/10 06:31:44;;;;;;;0.10;0.10;;;15.40;99.90;;;;;;5099899;28;20023;-73
2022/12/10 06:34:10;;;;;;;0.85;0.85;;;15.40;99.90;;;;;;5099827;28;20020;-77
2022/12/10 06:36:35;;;;;;;0.20;0.20;;;15.40;99.90;;;;;;5100009;28;20334;-75
2022/12/10 06:39:02;;;;;;;0.10;0.10;;;15.40;99.90;;;;;;5101811;28;20027;-81
2022/12/10 06:41:27;;;;;;;0.10;0.10;;;15.50;99.90;;;;;;5104791;28;20378;-87
2022/12/10 06:43:57;;;;;;;0.20;0.20;;;15.50;99.90;;;;;;5101685;28;20074;-74
2022/12/10 06:46:24;;;;;;;0.10;0.10;;;15.60;99.90;;;;;;5107069;28;20185;-80
2022/12/10 06:48:50;;;;;;;0.20;0.20;;;15.60;99.90;;;;;;5107472;28;20028;-77
2022/12/10 06:51:17;;;;;;;0.20;0.20;;;15.60;99.90;;;;;;5107569;28;20119;-75
2022/12/10 06:53:44;;;;;;;0.20;0.20;;;15.60;99.90;;;;;;5106053;28;20176;-76
2022/12/10 06:56:18;;;;;;;0.10;0.10;;;17.10;99.90;;;;;;5086930;28;20437;-80
2022/12/10 06:58:45;;;;;;;0.20;0.20;;;15.60;99.90;;;;;;5102375;28;20023;-91
2022/12/10 07:01:22;;;;;;;0.20;0.20;;;15.60;99.90;;;;;;5099009;28;20612;-80
2022/12/10 07:03:52;;;;;;;0.20;0.20;;;15.60;99.90;;;;;;5081254;28;20274;-81
2022/12/10 07:06:19;;;;;;;0.10;0.10;;;15.50;99.90;;;;;;5100456;28;20026;-75
2022/12/10 07:08:45;;;;;;;0.15;0.15;;;15.50;99.90;;;;;;5099928;28;20016;-75
2022/12/10 07:11:14;;;;;;;0.10;0.10;;;15.50;99.90;;;;;;5080370;28;20331;-76
2022/12/10 07:13:40;;;;;;;0.10;0.10;;;15.50;99.90;;;;;;5099548;28;20308;-77
2022/12/10 07:16:21;;;;;;;0.10;0.10;;;15.50;99.90;;;;;;5097879;28;20470;-79
2022/12/10 07:18:48;;;;;;;0.20;0.20;;;15.50;99.90;;;;;;5099995;28;20028;-81
2022/12/10 07:21:25;;;;;;;0.10;0.10;;;15.50;99.90;;;;;;5103518;28;20046;-78
2022/12/10 07:23:57;;;;;;;0.10;0.10;;;15.50;99.90;;;;;;5102775;28;20338;-82
2022/12/10 07:26:34;;;;;;;0.10;0.10;;;15.60;99.90;;;;;;5085161;28;20089;-80
2022/12/10 07:29:02;;;;;;;0.20;0.20;;;15.60;99.90;;;;;;5104438;28;20069;-75
2022/12/10 07:31:28;;;;;;;0.10;0.10;;;15.60;99.90;;;;;;5106904;28;20305;-80
2022/12/10 07:33:56;;;;;;;0.10;0.10;;;15.60;99.90;;;;;;5103643;28;20011;-82
2022/12/10 07:36:23;;;;;;;0.20;0.20;;;15.60;99.90;;;;;;5105709;28;20462;-76
2022/12/10 07:38:50;;;;;;;0.10;0.10;;;15.60;99.90;;;;;;5103731;28;20039;-74
2022/12/10 07:41:16;;;;;;;0.20;0.20;;;15.60;99.90;;;;;;5101595;28;20027;-77
2022/12/10 07:43:44;;;;;;;0.10;0.10;;;15.50;99.90;;;;;;5104462;28;20053;-76
2022/12/10 07:46:19;;;;;;;0.20;0.20;;;15.60;99.90;;;;;;5102557;28;20096;-93
2022/12/10 07:48:46;;;;;;;0.17;0.17;;;15.50;99.90;;;;;;5107645;28;20011;-80
2022/12/10 07:51:12;;;;;;;0.15;0.15;;;15.50;99.90;;;;;;5104119;28;20026;-88
2022/12/10 07:53:38;;;;;;;0.20;0.20;;;15.50;99.90;;;;;;5105108;28;20300;-77
2022/12/10 07:56:05;;;;;;;0.10;0.10;;;15.50;99.90;;;;;;5103738;28;20077;-85
2022/12/10 07:58:31;;;;;;;0.15;0.15;;;15.50;99.90;;;;;;5102460;28;20081;-78
2022/12/10 08:00:57;;;;;;;0.10;0.10;;;15.40;99.90;;;;;;5102760;28;20040;-76
2022/12/10 08:03:23;;;;;;;5.32;5.10;;;15.50;99.90;;;;;;5107835;28;20027;-78
2022/12/10 08:06:00;;;;;;;0.82;0.82;;;15.50;99.90;;;;;;5085572;28;20051;-83
2022/12/10 08:08:25;;;;;;;0.10;0.10;;;15.60;99.90;;;;;;5088332;28;20513;-80
2022/12/10 08:10:51;;;;;;;0.20;0.20;;;15.60;99.90;;;;;;5105492;28;20052;-76
2022/12/10 08:13:17;;;;;;;0.10;0.10;;;15.60;99.90;;;;;;5104089;28;20634;-77
2022/12/10 08:15:42;;;;;;;0.10;0.10;;;15.70;99.90;;;;;;5104755;28;20024;-77
2022/12/10 08:18:08;;;;;;;0.10;0.10;;;15.70;99.90;;;;;;5104329;28;20417;-74
2022/12/10 08:20:35;;;;;;;0.20;0.20;;;15.70;99.90;;;;;;5104599;28;20035;-77
2022/12/10 08:23:01;;;;;;;0.20;0.20;;;15.80;99.90;;;;;;5107839;28;20016;-77
2022/12/10 08:25:27;;;;;;;0.10;0.10;;;15.70;99.90;;;;;;5108063;28;20034;-75
2022/12/10 08:27:52;;;;;;;0.17;0.17;;;15.70;99.90;;;;;;5107258;28;20083;-75
2022/12/10 08:30:19;;;;;;;0.17;0.17;;;15.60;99.90;;;;;;5088424;28;20116;-78
2022/12/10 08:32:45;;;;;;;1.35;0.80;;;15.70;99.90;;;;;;5104157;28;20027;-75
2022/12/10 08:35:11;;;;;;;0.10;0.10;;;15.60;99.90;;;;;;5105542;28;20020;-75
2022/12/10 08:37:41;;;;;;;8.75;3.92;;;15.70;99.90;;;;;;5107356;28;20088;-75
2022/12/10 08:40:08;;;;;;;0.15;0.15;;;15.70;99.90;;;;;;5107560;28;20024;-85
2022/12/10 08:42:34;;;;;;;0.30;0.30;;;15.70;99.90;;;;;;5103090;28;20023;-77
2022/12/10 08:45:01;;;;;;;0.63;0.63;;;15.70;99.90;;;;;;5105938;28;20266;-75
2022/12/10 08:47:28;;;;;;;0.10;0.10;;;15.70;99.90;;;;;;5103570;28;20028;-78
2022/12/10 08:49:54;;;;;;;0.10;0.10;;;15.80;99.90;;;;;;5108437;28;20077;-84
2022/12/10 08:52:20;;;;;;;2.38;2.17;;;15.70;99.90;;;;;;5108569;28;20090;-74
2022/12/10 08:54:45;;;;;;;0.10;0.10;;;15.80;99.90;;;;;;5104696;28;20428;-78
2022/12/10 08:57:14;;;;;;;0.10;0.10;;;15.90;99.90;;;;;;5086903;28;20734;-73
2022/12/10 08:59:40;;;;;;;0.10;0.10;;;15.90;99.90;;;;;;5107066;28;20028;-85
2022/12/10 09:02:10;;;;;;;0.10;0.10;;;16.00;99.90;;;;;;5106416;28;20062;-73
2022/12/10 09:04:35;;;;;;;0.10;0.10;;;16.00;99.90;;;;;;5106543;28;20004;-72
2022/12/10 09:07:01;;;;;;;0.20;0.20;;;16.00;99.90;;;;;;5081837;28;20035;-82
2022/12/10 09:09:29;;;;;;;0.10;0.10;;;;;;;;;;5104511;28;20015;-81
2022/12/10 09:11:55;;;;;;;0.10;0.10;;;16.00;99.90;;;;;;5087071;28;20023;-73
2022/12/10 09:14:20;;;;;;;47.92;9.95;;;16.10;99.90;;;;;;5102748;28;20046;-74
2022/12/10 09:16:49;;;;;;;17.98;6.53;;;16.00;99.90;;;;;;5104172;28;20161;-80
2022/12/10 09:19:14;;;;;;;4.03;3.80;;;16.00;99.90;;;;;;5112484;28;20026;-76
2022/12/10 09:21:40;;;;;;;0.10;0.10;;;16.00;99.90;;;;;;5112199;28;20032;-86
2022/12/10 09:24:06;;;;;;;0.10;0.10;;;16.70;99.90;;;;;;5113048;28;20061;-87
2022/12/10 09:26:32;;;;;;;5.47;5.15;;;16.10;99.90;;;;;;5105754;28;20030;-75
2022/12/10 09:28:59;;;;;;;0.10;0.10;;;16.10;99.90;;;;;;5101681;28;20486;-74
2022/12/10 09:31:25;;;;;;;6.32;5.93;;;16.10;99.90;;;;;;5101087;28;20058;-80
2022/12/10 09:33:56;;;;;;;0.20;0.20;;;16.10;99.90;;;;;;5118628;28;20019;-80
2022/12/10 09:36:22;;;;;;;2.42;2.33;;;16.00;99.90;;;;;;5106580;28;20137;-80
2022/12/10 09:38:48;;;;;;;0.10;0.10;;;16.00;99.90;;;;;;5114324;28;20047;-81
2022/12/10 09:41:49;;;;;;;0.20;0.20;;;16.00;99.90;;;;;;5112250;28;20055;-74
2022/12/10 09:44:20;;;;;;;3.50;3.40;;;16.00;99.90;;;;;;5106988;28;20015;-76
2022/12/10 09:47:00;;;;;;;0.20;0.20;;;16.00;99.90;;;;;;5115280;28;20674;-75
2022/12/10 09:49:37;;;;;;;0.30;0.30;;;16.00;99.90;;;;;;5121071;28;20023;-74
2022/12/10 09:52:05;;;;;;;0.17;0.17;;;15.80;99.90;;;;;;5116204;28;20016;-82
2022/12/10 09:54:37;;;;;;;0.60;0.50;;;16.10;99.90;;;;;;5114147;28;20039;-74
2022/12/10 09:57:05;;;;;;;4.57;4.38;;;16.20;99.90;;;;;;5111485;28;20076;-74
2022/12/10 09:59:35;;;;;;;64.45;36.33;;;16.20;99.90;;;;;;5100271;28;20019;-77
2022/12/10 10:02:27;;;;;;;0.20;0.20;;;16.40;99.90;;;;;;5118724;28;20032;-76
2022/12/10 10:05:27;;;;;;;0.10;0.10;;;16.30;99.90;;;;;;5095812;28;20083;-77
2022/12/10 10:08:01;;;;;;;0.10;0.10;;;16.20;99.90;;;;;;5103147;28;20016;-76
2022/12/10 10:10:39;;;;;;;0.15;0.15;;;18.30;99.90;;;;;;5099951;28;20099;-74
2022/12/10 10:13:07;;;;;;;0.45;0.45;;;16.30;99.90;;;;;;5108018;28;20012;-91
2022/12/10 10:15:36;;;;;;;0.10;0.10;;;16.30;99.90;;;;;;5099867;28;20012;-83
2022/12/10 10:18:12;;;;;;;0.10;0.10;;;16.30;99.90;;;;;;5106181;28;20020;-87
2022/12/10 10:20:38;;;;;;;0.28;0.28;;;16.20;99.90;;;;;;5107716;28;20153;-91
2022/12/10 10:23:04;;;;;;;0.10;0.10;;;16.40;99.90;;;;;;5102756;28;20073;-79
2022/12/10 10:25:30;;;;;;;6.00;5.38;;;16.40;99.90;;;;;;5101178;28;20676;-82
2022/12/10 10:27:56;;;;;;;0.10;0.10;;;16.50;99.90;;;;;;5102942;28;20308;-74
2022/12/10 10:30:24;;;;;;;0.10;0.10;;;16.50;99.90;;;;;;5085655;28;20639;-78
2022/12/10 10:32:55;;;;;;;0.10;0.10;;;16.60;99.90;;;;;;5084105;28;20657;-79
2022/12/10 10:35:32;;;;;;;21.20;17.85;;;16.70;99.90;;;;;;5102300;28;20023;-83
2022/12/10 10:38:05;;;;;;;0.10;0.10;;;16.60;99.90;;;;;;5100554;28;20093;-86
2022/12/10 10:40:42;;;;;;;2.05;0.82;;;16.50;99.90;;;;;;5081856;28;20039;-80
2022/12/10 10:43:19;;;;;;;0.10;0.10;;;16.50;99.90;;;;;;5098506;28;20016;-79
2022/12/10 10:45:49;;;;;;;0.10;0.10;;;16.50;99.90;;;;;;5099704;28;20026;-84
2022/12/10 10:48:21;;;;;;;10.20;4.05;;;16.50;99.90;;;;;;5100859;28;20042;-76
2022/12/10 10:50:48;;;;;;;16.73;15.70;;;16.40;99.90;;;;;;5100019;28;20018;-78
2022/12/10 10:53:25;;;;;;;0.10;0.10;;;16.50;99.90;;;;;;5101208;28;20046;-88
2022/12/10 10:55:52;;;;;;;0.93;0.90;;;16.80;99.90;;;;;;5104660;28;20015;-85
2022/12/10 10:58:22;;;;;;;0.10;0.10;;;16.50;99.90;;;;;;5112502;28;20032;-84
2022/12/10 11:01:08;;;;;;;4.57;4.13;;;16.50;99.90;;;;;;5106505;28;20035;-83
2022/12/10 11:03:36;;;;;;;12.75;3.75;;;16.60;99.90;;;;;;5091574;28;20573;-78
2022/12/10 11:06:07;;;;;;;4.88;4.68;;;16.60;99.90;;;;;;5112657;28;20019;-74
2022/12/10 11:08:37;;;;;;;1.98;1.88;;;16.60;99.90;;;;;;5114643;28;20027;-74
2022/12/10 11:11:05;;;;;;;0.10;0.10;;;16.60;99.90;;;;;;5116511;28;20027;-86
2022/12/10 11:13:35;;;;;;;0.15;0.15;;;16.70;99.90;;;;;;5121650;28;20030;-81
2022/12/10 11:16:16;;;;;;;0.30;0.30;;;16.70;99.90;;;;;;5116166;28;20142;-77
2022/12/10 11:18:52;;;;;;;0.20;0.20;;;17.10;99.90;;;;;;5124649;28;20055;-75
2022/12/10 11:21:21;;;;;;;0.10;0.10;;;16.70;99.90;;;;;;5126973;28;20100;-81
2022/12/10 11:23:52;;;;;;;1.00;1.00;;;16.70;99.90;;;;;;5115061;28;20353;-78
2022/12/10 11:26:38;;;;;;;9.60;8.10;;;16.70;99.90;;;;;;5114349;28;20031;-86
2022/12/10 11:29:31;;;;;;;3.92;3.63;;;16.60;99.90;;;;;;5095642;28;20378;-76
2022/12/10 11:32:34;;;;;;;30.88;5.53;;;16.50;99.90;;;;;;5114113;28;20043;-77
2022/12/10 11:35:20;;;;;;;0.13;0.13;;;16.40;99.90;;;;;;5108178;28;20019;-87
2022/12/10 11:37:57;;;;;;;0.20;0.20;;;16.30;99.90;;;;;;5105529;28;20015;-75
2022/12/10 11:40:26;;;;;;;2.22;2.10;;;16.40;99.90;;;;;;5106224;28;20020;-77
2022/12/10 11:43:29;;;;;;;25.67;12.63;;;16.40;99.90;;;;;;5103228;28;20084;-73
2022/12/10 11:46:10;;;;;;;0.20;0.20;;;16.30;99.90;;;;;;5103866;28;20454;-76
2022/12/10 11:49:20;;;;;;;7.68;6.65;;;16.30;99.90;;;;;;5086218;28;20018;-75
2022/12/10 11:52:00;;;;;;;0.13;0.13;;;16.40;99.90;;;;;;5020268;28;20805;-74
2022/12/10 11:55:06;;;;;;;0.20;0.20;;;16.40;99.90;;;;;;5021340;28;20056;-74
2022/12/10 11:57:57;;;;;;;0.40;0.40;;;16.50;99.90;;;;;;4923865;29;20036;-77
2022/12/10 12:00:29;;;;;;;0.10;0.10;;;16.50;99.90;;;;;;4924155;29;20140;-83
2022/12/10 12:03:07;;;;;;;0.10;0.10;;;16.50;99.90;;;;;;4925064;29;20036;-77
2022/12/10 12:05:52;;;;;;;0.10;0.10;;;16.60;99.90;;;;;;4924742;29;20032;-80
2022/12/10 12:08:43;;;;;;;0.20;0.20;;;16.60;99.90;;;;;;4929397;29;20035;-76
2022/12/10 12:11:23;;;;;;;0.10;0.10;;;16.60;99.90;;;;;;4913763;29;20091;-76
2022/12/10 12:14:02;;;;;;;0.20;0.20;;;16.70;99.90;;;;;;4929749;29;20027;-74
2022/12/10 12:16:35;;;;;;;12.02;6.15;;;16.70;99.90;;;;;;4929006;29;20043;-77
2022/12/10 12:19:19;;;;;;;0.57;0.57;;;16.80;99.90;;;;;;4925273;29;20035;-74
2022/12/10 12:21:48;;;;;;;1.33;1.23;;;16.70;99.90;;;;;;4939239;28;20058;-76
2022/12/10 12:24:25;;;;;;;32.35;11.80;;;16.80;99.90;;;;;;5004086;28;20096;-80
2022/12/10 12:26:57;;;;;;;0.20;0.20;;;16.90;99.90;;;;;;5002704;28;20173;-79
2022/12/10 12:29:34;;;;;;;3.00;2.90;;;16.80;99.90;;;;;;5001875;28;20048;-83
2022/12/10 12:32:09;;;;;;;0.10;0.10;;;16.70;99.90;;;;;;5075190;28;20046;-85
2022/12/10 12:34:54;;;;;;;6.00;5.57;;;16.70;99.90;;;;;;5109752;28;20014;-76
2022/12/10 12:37:24;;;;;;;0.20;0.20;;;16.70;99.90;;;;;;5109137;28;20276;-80
2022/12/10 12:39:55;;;;;;;0.10;0.10;;;16.70;99.90;;;;;;5111259;28;20019;-81
2022/12/10 12:42:37;;;;;;;0.47;0.47;;;17.30;99.90;;;;;;5108724;28;20024;-75
2022/12/10 12:45:13;;;;;;;0.10;0.10;;;16.70;99.90;;;;;;5089265;28;20016;-78
2022/12/10 12:48:09;;;;;;;1.65;1.65;;;16.80;99.90;;;;;;5112779;28;20076;-76
2022/12/10 12:51:03;;;;;;;5.05;4.75;;;16.70;99.90;;;;;;5111096;28;20031;-81
2022/12/10 12:53:29;;;;;;;0.10;0.10;;;16.70;99.90;;;;;;5003352;28;20034;-79
2022/12/10 12:56:04;;;;;;;0.10;0.10;;;16.70;99.90;;;;;;5006999;28;20041;-84
2022/12/10 12:59:04;;;;;;;9.50;2.72;;;16.70;99.90;;;;;;5011883;28;20103;-93
2022/12/10 13:01:48;;;;;;;0.20;0.20;;;16.70;99.90;;;;;;5011170;28;20105;-87
2022/12/10 13:04:14;;;;;;;;;;;16.60;99.90;;;;;;5016672;28;20043;-87
2022/12/10 13:06:44;;;;;;;0.10;0.10;;;16.50;99.90;;;;;;5008742;28;19901;-87
2022/12/10 13:09:12;;;;;;;0.17;0.17;;;16.50;99.90;;;;;;4998108;28;20792;-87
2022/12/10 13:12:01;;;;;;;0.10;0.10;;;16.50;99.90;;;;;;5007855;28;20054;-87
2022/12/10 13:14:36;;;;;;;0.10;0.10;;;16.40;99.90;;;;;;5004632;28;20014;-88
2022/12/10 13:17:44;;;;;;;0.15;0.15;;;16.40;99.90;;;;;;4986968;28;20050;-79
2022/12/10 13:20:31;;;;;;;0.20;0.20;;;16.40;99.90;;;;;;4926602;29;20031;-78